createdAt,value
2022-09-22T00:04:28.705Z,8.15
2022-09-22T00:09:31.516Z,8.14
2022-09-22T00:14:34.523Z,8.03
2022-09-22T00:19:38.208Z,7.99
2022-09-22T00:24:43.419Z,7.90
2022-09-22T00:29:47.198Z,7.83
2022-09-22T00:34:50.442Z,7.81
2022-09-22T00:39:53.942Z,7.81
2022-09-22T00:44:56.879Z,7.74
2022-09-22T00:50:19.022Z,7.72
2022-09-22T00:55:43.862Z,7.68
2022-09-22T01:00:46.929Z,7.61
2022-09-22T01:05:54.860Z,7.58
2022-09-22T01:10:59.609Z,7.54
2022-09-22T01:16:21.801Z,7.48
2022-09-22T01:21:48.286Z,7.41
2022-09-22T01:27:06.228Z,7.35
2022-09-22T01:32:42.872Z,7.24
2022-09-22T01:38:13.129Z,7.18
2022-09-22T01:43:40.752Z,7.25
2022-09-22T01:48:50.941Z,7.24
2022-09-22T01:54:01.323Z,7.27
2022-09-22T01:59:07.407Z,7.34
2022-09-22T02:04:26.523Z,7.35
2022-09-22T02:09:32.974Z,7.35
2022-09-22T02:14:35.996Z,7.29
2022-09-22T02:19:41.135Z,7.21
2022-09-22T02:24:46.564Z,7.13
2022-09-22T02:30:08.243Z,7.09
2022-09-22T02:35:11.346Z,7.14
2022-09-22T02:40:43.081Z,7.21
2022-09-22T02:46:20.425Z,7.24
2022-09-22T02:51:23.617Z,7.16
2022-09-22T02:56:26.401Z,7.12
2022-09-22T03:01:29.148Z,7.08
2022-09-22T03:06:32.541Z,6.96
2022-09-22T03:11:35.538Z,6.87
2022-09-22T03:16:38.428Z,6.79
2022-09-22T03:21:41.192Z,6.69
2022-09-22T03:26:43.891Z,6.64
2022-09-22T03:31:46.815Z,6.60
2022-09-22T03:36:50.128Z,6.56
2022-09-22T03:41:52.876Z,6.48
2022-09-22T03:46:55.855Z,6.38
2022-09-22T03:51:58.648Z,6.30
2022-09-22T03:57:04.251Z,6.26
2022-09-22T04:02:07.724Z,6.25
2022-09-22T04:07:10.628Z,6.26
2022-09-22T04:12:13.430Z,6.21
2022-09-22T04:17:16.244Z,6.25
2022-09-22T04:22:19.155Z,6.31
2022-09-22T04:27:21.973Z,6.31
2022-09-22T04:32:24.893Z,6.41
2022-09-22T04:37:27.803Z,6.45
2022-09-22T04:42:30.776Z,6.47
2022-09-22T04:47:34.075Z,6.42
2022-09-22T04:52:37.101Z,6.50
2022-09-22T04:57:40.059Z,6.51
2022-09-22T05:02:43.056Z,6.50
2022-09-22T05:07:49.075Z,6.52
2022-09-22T05:12:55.832Z,6.57
2022-09-22T05:17:59.453Z,6.61
2022-09-22T05:23:02.366Z,6.70
2022-09-22T05:28:05.284Z,6.74
2022-09-22T05:33:08.394Z,6.86
2022-09-22T05:38:11.234Z,6.95
2022-09-22T05:43:15.002Z,7.10
2022-09-22T05:48:17.807Z,7.29
2022-09-22T05:53:20.829Z,7.44
2022-09-22T05:58:24.551Z,7.58
2022-09-22T06:03:27.361Z,7.72
2022-09-22T06:08:30.993Z,7.82
2022-09-22T06:13:33.888Z,7.90
2022-09-22T06:18:36.853Z,8.02
2022-09-22T06:23:42.950Z,8.36
2022-09-22T06:28:47.219Z,8.62
2022-09-22T06:33:50.490Z,8.92
2022-09-22T06:38:56.248Z,9.19
2022-09-22T06:43:59.474Z,9.48
2022-09-22T06:49:02.855Z,9.72
2022-09-22T06:54:06.848Z,9.87
2022-09-22T06:59:13.060Z,10.09
2022-09-22T07:04:17.747Z,10.28
2022-09-22T07:09:21.265Z,10.44
2022-09-22T07:14:25.491Z,10.59
2022-09-22T07:19:28.376Z,10.74
2022-09-22T07:24:31.150Z,10.94
2022-09-22T07:29:33.971Z,11.13
2022-09-22T07:34:36.745Z,11.18
2022-09-22T07:39:39.513Z,11.25
2022-09-22T07:45:01.105Z,11.35
2022-09-22T07:50:04.824Z,11.51
2022-09-22T07:55:08.342Z,11.71
2022-09-22T08:00:12.782Z,11.87
2022-09-22T08:05:16.615Z,12.11
2022-09-22T08:10:20.205Z,12.46
2022-09-22T08:15:27.095Z,12.74
2022-09-22T08:20:30.425Z,13.00
2022-09-22T08:25:33.150Z,13.21
2022-09-22T08:30:36.436Z,13.65
2022-09-22T08:35:51.134Z,13.95
2022-09-22T08:41:31.716Z,14.31
2022-09-22T08:46:38.453Z,14.40
2022-09-22T08:51:52.289Z,14.53
2022-09-22T08:57:00.859Z,14.63
2022-09-22T09:02:34.843Z,14.67
2022-09-22T09:07:46.733Z,14.80
2022-09-22T09:13:30.700Z,14.91
2022-09-22T09:18:39.439Z,15.02
2022-09-22T09:29:22.160Z,15.53
2022-09-22T09:34:29.098Z,16.56
2022-09-22T09:39:41.874Z,17.19
2022-09-22T09:44:45.669Z,17.36
2022-09-22T09:49:52.727Z,17.32
2022-09-22T09:54:55.920Z,17.28
2022-09-22T10:00:33.949Z,17.28
2022-09-22T10:05:37.658Z,17.34
2022-09-22T10:10:42.250Z,17.52
2022-09-22T10:16:20.255Z,17.75
2022-09-22T10:21:24.870Z,18.03
2022-09-22T10:26:33.550Z,18.07
2022-09-22T10:31:37.949Z,17.87
2022-09-22T10:36:45.793Z,17.43
2022-09-22T10:41:49.269Z,16.93
2022-09-22T10:47:14.103Z,16.66
2022-09-22T10:52:19.590Z,16.58
2022-09-22T10:58:02.613Z,16.76
2022-09-22T11:03:47.403Z,17.02
2022-09-22T11:09:25.827Z,18.00
2022-09-22T11:14:45.816Z,18.86
2022-09-22T11:20:09.997Z,19.45
2022-09-22T11:26:14.154Z,20.06
2022-09-22T11:32:05.557Z,19.47
2022-09-22T11:37:25.946Z,19.26
2022-09-22T11:42:47.758Z,19.37
2022-09-22T11:48:21.503Z,19.23
2022-09-22T11:53:46.007Z,18.75
2022-09-22T11:58:52.821Z,18.10
2022-09-22T12:04:35.818Z,17.53
2022-09-22T12:09:52.015Z,17.13
2022-09-22T12:15:20.558Z,16.80
2022-09-22T12:20:53.651Z,17.00
2022-09-22T12:26:12.377Z,17.38
2022-09-22T12:31:21.129Z,17.76
2022-09-22T12:36:30.889Z,17.79
2022-09-22T12:41:33.574Z,17.84
2022-09-22T12:46:36.264Z,17.87
2022-09-22T12:51:39.015Z,17.84
2022-09-22T12:56:49.024Z,17.67
2022-09-22T13:02:12.025Z,17.66
2022-09-22T13:07:37.992Z,17.71
2022-09-22T13:12:40.615Z,17.66
2022-09-22T13:17:49.660Z,17.41
2022-09-22T13:22:52.888Z,17.26
2022-09-22T13:28:16.464Z,17.17
2022-09-22T13:33:24.115Z,17.10
2022-09-22T13:38:27.646Z,17.08
2022-09-22T13:43:39.262Z,16.95
2022-09-22T13:48:42.025Z,16.77
2022-09-22T13:53:50.216Z,16.63
2022-09-22T13:58:57.325Z,16.48
2022-09-22T14:04:00.398Z,16.42
2022-09-22T14:09:03.844Z,16.31
2022-09-22T14:14:21.061Z,16.16
2022-09-22T14:19:37.480Z,15.98
2022-09-22T14:24:44.962Z,15.89
2022-09-22T14:29:51.071Z,15.74
2022-09-22T14:34:58.891Z,15.64
2022-09-22T14:40:04.996Z,15.63
2022-09-22T14:45:10.794Z,15.61
2022-09-22T14:50:38.322Z,15.56
2022-09-22T14:55:44.753Z,15.49
2022-09-22T15:01:16.679Z,15.38
2022-09-22T15:06:19.492Z,15.39
2022-09-22T15:11:42.093Z,15.53
2022-09-22T15:16:44.858Z,16.29
2022-09-22T15:21:48.039Z,17.09
2022-09-22T15:26:50.834Z,17.63
2022-09-22T15:31:53.535Z,17.92
2022-09-22T15:36:57.168Z,18.07
2022-09-22T15:42:07.330Z,17.79
2022-09-22T15:47:17.021Z,17.51
2022-09-22T15:52:19.678Z,17.17
2022-09-22T15:57:22.336Z,16.95
2022-09-22T16:02:25.947Z,16.75
2022-09-22T16:07:28.600Z,16.54
2022-09-22T16:12:31.206Z,16.21
2022-09-22T16:17:33.826Z,15.89
2022-09-22T16:22:36.521Z,15.51
2022-09-22T16:27:39.230Z,15.14
2022-09-22T16:32:42.979Z,14.82
2022-09-22T16:37:46.231Z,14.47
2022-09-22T16:42:48.856Z,14.20
2022-09-22T16:47:51.679Z,13.89
2022-09-22T16:52:54.866Z,13.64
2022-09-22T16:57:58.783Z,13.38
2022-09-22T17:03:01.515Z,13.13
2022-09-22T17:08:06.797Z,12.90
2022-09-22T17:13:09.692Z,12.70
2022-09-22T17:18:12.555Z,12.53
2022-09-22T17:23:15.608Z,12.39
2022-09-22T17:28:18.295Z,12.23
2022-09-22T17:33:21.671Z,12.11
2022-09-22T17:38:27.008Z,12.00
2022-09-22T17:43:29.707Z,11.92
2022-09-22T17:48:50.878Z,11.83
2022-09-22T17:54:11.995Z,11.80
2022-09-22T17:59:15.071Z,11.75
2022-09-22T18:04:17.710Z,11.72
2022-09-22T18:09:20.925Z,11.68
2022-09-22T18:14:25.255Z,11.63
2022-09-22T18:19:30.621Z,11.61
2022-09-22T18:24:37.893Z,11.57
2022-09-22T18:29:40.660Z,11.52
2022-09-22T18:34:43.680Z,11.48
2022-09-22T18:39:50.400Z,11.45
2022-09-22T18:44:53.267Z,11.43
2022-09-22T18:49:57.006Z,11.40
2022-09-22T18:55:00.506Z,11.40
2022-09-22T19:00:04.505Z,11.36
2022-09-22T19:05:07.373Z,11.28
2022-09-22T19:10:12.459Z,11.14
2022-09-22T19:15:18.806Z,10.99
2022-09-22T19:20:25.113Z,10.88
2022-09-22T19:25:28.943Z,10.83
2022-09-22T19:30:31.805Z,10.80
2022-09-22T19:35:38.938Z,10.75
2022-09-22T19:40:42.042Z,10.65
2022-09-22T19:45:44.683Z,10.56
2022-09-22T19:50:47.647Z,10.43
2022-09-22T19:55:50.473Z,10.25
2022-09-22T20:00:53.078Z,10.05
2022-09-22T20:05:55.735Z,9.89
2022-09-22T20:11:22.670Z,9.81
2022-09-22T20:16:21.418Z,9.76
2022-09-22T20:21:26.061Z,9.74
2022-09-22T20:26:28.750Z,9.71
2022-09-22T20:31:31.449Z,9.75
2022-09-22T20:36:37.034Z,9.73
2022-09-22T20:41:41.748Z,9.63
2022-09-22T20:46:47.872Z,9.45
2022-09-22T20:51:50.966Z,9.27
2022-09-22T20:56:54.518Z,9.10
2022-09-22T21:02:00.681Z,8.97
2022-09-22T21:07:03.727Z,8.91
2022-09-22T21:12:06.865Z,8.84
2022-09-22T21:17:09.509Z,8.64
2022-09-22T21:22:13.003Z,8.48
2022-09-22T21:27:15.735Z,8.37
2022-09-22T21:32:20.045Z,8.21
2022-09-22T21:37:23.501Z,8.06
2022-09-22T21:42:26.904Z,8.11
2022-09-22T21:47:29.586Z,7.98
2022-09-22T21:52:32.186Z,7.84
2022-09-22T21:57:34.840Z,7.76
2022-09-22T22:02:57.457Z,7.78
2022-09-22T22:08:00.227Z,7.78
2022-09-22T22:13:03.002Z,7.73
2022-09-22T22:18:05.792Z,7.66
2022-09-22T22:23:09.483Z,7.60
2022-09-22T22:28:12.093Z,7.51
2022-09-22T22:33:14.729Z,7.42
2022-09-22T22:38:17.842Z,7.28
2022-09-22T22:43:21.044Z,7.07
2022-09-22T22:48:24.300Z,7.01
2022-09-22T22:53:26.894Z,6.97
2022-09-22T22:58:31.795Z,6.92
2022-09-22T23:03:34.423Z,6.85
2022-09-22T23:08:37.441Z,6.79
2022-09-22T23:13:45.254Z,6.76
2022-09-22T23:18:48.204Z,6.70
2022-09-22T23:23:50.838Z,6.71
2022-09-22T23:28:54.057Z,6.70
2022-09-22T23:33:57.566Z,6.67
2022-09-22T23:39:05.022Z,6.64
2022-09-22T23:44:07.907Z,6.54
2022-09-22T23:49:10.472Z,6.49
2022-09-22T23:54:15.949Z,6.43
2022-09-22T23:59:18.541Z,6.36
